Monday, December 5, 2016, 11:31 AM EST

KUNV, State College, University Park Airport

Location: State College, PA, United States Lat: 40.85
Local Time: 11:31 AM EST (16:31 GMT) Lon: -77.85
Time Zone: US/Eastern Elev: 1240 ft

Show me the last for .
Show Decoded

2016-12-05 10:53 METAR KUNV 051553Z 29015G29KT 10SM SCT020 BKN027 BKN070 05/01 A2999 =
2016-12-05 09:53 METAR KUNV 051453Z 29013G23KT 10SM DZ SCT023 BKN030 BKN050 04/01 A2998 =
2016-12-05 08:53 METAR KUNV 051353Z 26008KT 10SM BKN022 BKN045 BKN055 04/01 A2996 =
2016-12-05 07:53 METAR KUNV 051253Z 00000KT 7SM SCT015 OVC023 01/00 A2993 =
2016-12-05 06:53 METAR KUNV 051153Z 00000KT 4SM RA OVC012 01/00 A2992 =
2016-12-05 05:53 METAR KUNV 051053Z 00000KT 3SM -RA BKN006 OVC016 01/00 A2990 =
2016-12-05 05:35 METAR KUNV 051035Z AUTO 25003KT 3SM RA BKN006 OVC010 01/00 A2990 RMK AO2
                 T00050002 =
2016-12-05 05:15 METAR KUNV 051015Z AUTO 00000KT 3SM -RA SCT004 BKN009 OVC019 01/00 A2990 RMK AO2
                 T00050001 =
2016-12-05 04:55 METAR KUNV 050955Z AUTO 24005KT 3SM -RA BKN010 OVC016 01/00 A2989 RMK AO2
                 T00060002 =
2016-12-05 04:35 METAR KUNV 050935Z AUTO 23005KT 4SM -SN BKN010 OVC016 01/00 A2989 RMK AO2
                 T00060002 =
2016-12-05 04:15 METAR KUNV 050915Z AUTO 22005KT 5SM -SN OVC010 01/00 A2989 RMK AO2 T00070002 =
2016-12-05 03:55 METAR KUNV 050855Z AUTO 22005KT 4SM -SN OVC010 01/00 A2989 RMK AO2 T00070001 =
2016-12-05 03:35 METAR KUNV 050835Z AUTO 23004KT 5SM RA OVC010 01/00 A2989 RMK AO2 T00060001 =
2016-12-05 03:15 METAR KUNV 050815Z AUTO 19004KT 4SM -SN OVC012 01/00 A2988 RMK AO2 T00050000 =
2016-12-05 02:55 METAR KUNV 050755Z AUTO 20003KT 4SM -SN OVC012 01/00 A2989 RMK AO2 T00050000 =
2016-12-05 02:35 METAR KUNV 050735Z AUTO 21003KT 4SM UP OVC013 00/00 A2990 RMK AO2 T00030000 =
2016-12-05 02:15 METAR KUNV 050715Z AUTO 00000KT 2 1/2SM UP SCT010 OVC015 00/00 A2990 RMK AO2
                 T00020000 =
2016-12-05 01:55 METAR KUNV 050655Z AUTO 00000KT 3SM UP OVC015 00/00 A2990 RMK AO2 T00020000 =
2016-12-05 01:35 METAR KUNV 050635Z AUTO 22003KT 2SM -SN OVC014 00/00 A2991 RMK AO2 T00020000 =
2016-12-05 01:15 METAR KUNV 050615Z AUTO 00000KT 2SM -SN BKN012 OVC017 00/00 A2990 RMK AO2
                 T00030000 =
2016-12-05 00:55 METAR KUNV 050555Z AUTO 17003KT 3SM -SN SCT012 OVC018 01/00 A2991 RMK AO2
                 T00051001 10030 20005 =
2016-12-05 00:35 METAR KUNV 050535Z AUTO 25003KT 3SM -SN SCT011 OVC018 01/00 A2993 RMK AO2
                 T00070000 =
2016-12-05 00:15 METAR KUNV 050515Z AUTO 23003KT 5SM UP BKN020 OVC027 01/00 A2993 RMK AO2
                 T00061002 =
2016-12-04 23:55 METAR KUNV 050455Z AUTO 19005KT 5SM -SN BKN023 OVC029 01/00 A2994 RMK AO2
                 T00101005 =
2016-12-04 23:35 METAR KUNV 050435Z AUTO 18007KT 150V210 7SM -SN OVC026 02/M01 A2994 RMK AO2
                 T00171008 =
2016-12-04 23:15 METAR KUNV 050415Z AUTO 19009G14KT 5SM -SN BKN026 BKN036 OVC041 02/M01 A2994 RMK
                 AO2 T00221015 =
2016-12-04 22:55 METAR KUNV 050355Z AUTO 14008KT 10SM SCT026 BKN041 OVC055 03/M02 A2994 RMK AO2
                 T00261020 400350020 =
2016-12-04 22:35 METAR KUNV 050335Z AUTO 15007KT 10SM SCT043 OVC065 03/M02 A2996 RMK AO2
                 T00291020 =
2016-12-04 22:15 METAR KUNV 050315Z AUTO 17006KT 10SM OVC065 03/M02 A2998 RMK AO2 T00301020 =
2016-12-04 20:53 METAR KUNV 050153Z 15005KT 10SM BKN120 03/M03 A3003 =
2016-12-04 19:53 METAR KUNV 050053Z 14004KT 10SM SCT110 03/M02 A3006 =
2016-12-04 18:53 METAR KUNV 042353Z 19004KT 10SM SCT120 03/M03 A3009 =
2016-12-04 17:53 METAR KUNV 042253Z 00000KT 10SM SCT120 02/M03 A3009 =
2016-12-04 16:53 METAR KUNV 042153Z 00000KT 10SM SCT120 03/M03 A3012 =
2016-12-04 15:53 METAR KUNV 042053Z 00000KT 10SM OVC032 03/M03 A3014 =
2016-12-04 14:53 METAR KUNV 041953Z 00000KT 10SM OVC028 03/M03 A3015 =
2016-12-04 13:53 METAR KUNV 041853Z 00000KT 10SM OVC028 03/M02 A3017 =
2016-12-04 12:53 METAR KUNV 041753Z 00000KT 10SM OVC028 03/M02 A3019 =
2016-12-04 11:53 METAR KUNV 041653Z 00000KT 10SM OVC028 03/M02 A3022 =

Support USWX by starting your Amazon purchase here.